Terminal Aerodrome Forecast
Issued by NWS North Platte, NE

Home | Current Version | Previous Version | Text Only | Print | Product List | Glossary On
Versions: 1 2 3 4 5 6 7 8 9 10 11 12 13 14 15 16 17 18 19
000
FTUS43 KLBF 290520
TAFLBF
TAF
KLBF 290520Z 2906/3006 02004KT P6SM OVC040
     FM291500 03013G20KT P6SM OVC100
     FM291800 03017G25KT P6SM OVC080 PROB30 2920/2924 P6SM -SHRA
      OVC040
     FM300000 03015KT P6SM -RA OVC030
     FM300400 02012KT P6SM -RA OVC018=

USA.gov is the U.S. government's official web portal to all federal, state and local government web resources and services.